Sutton Coldfield, United Kingdom
Current Conditions -  °F | °C
As of 1:20 PM on Thursday 18 Dec 2014 (Local Time) from EGBB Reporting Station
Broken Clouds Broken Clouds  
Wind Chill: 57°   Ceiling: 2100
Heat Index: 57°   Visibility: 6mi
Dew Point: 50°   Wind: 16mph
Humidity: 77%   Direction: 240°WSW
Pressure: 29.68"   Gusts: 28mph
Location:  52.56°N, 1.83°W
Report Text: EGBB 181320Z 24014G24KT 210V270 9999 BKN021 14/10 Q1005
Loading
Personal Weather Stations






























Interactive Weather Map New forecast layout! Learn more

10-Day Weather Forecast

Advertisements
Track Severe Weather on mobile